createdAt,value
2019-01-15T00:01:14.455Z,96848.80
2019-01-15T00:06:31.887Z,96852.48
2019-01-15T00:11:49.349Z,96859.58
2019-01-15T00:17:07.093Z,96860.72
2019-01-15T00:22:24.841Z,96838.11
2019-01-15T00:27:42.550Z,96853.93
2019-01-15T00:32:59.968Z,96856.62
2019-01-15T00:38:18.181Z,96872.82
2019-01-15T00:43:35.878Z,96869.67
2019-01-15T00:48:53.750Z,96878.93
2019-01-15T00:54:11.658Z,96890.47
2019-01-15T00:59:29.267Z,96901.47
2019-01-15T01:04:46.560Z,96913.53
2019-01-15T01:10:04.767Z,96904.16
2019-01-15T01:15:22.137Z,96909.20
2019-01-15T01:20:40.774Z,96914.83
2019-01-15T01:25:57.918Z,96916.27
2019-01-15T01:31:15.312Z,96913.80
2019-01-15T01:36:32.449Z,96921.31
2019-01-15T01:41:50.018Z,96927.80
2019-01-15T01:47:08.335Z,96928.44
2019-01-15T01:52:26.139Z,96932.77
2019-01-15T01:57:43.682Z,96920.81
2019-01-15T02:03:01.060Z,96917.52
2019-01-15T02:08:18.440Z,96917.96
2019-01-15T02:13:35.791Z,96943.98
2019-01-15T02:18:53.209Z,96939.28
2019-01-15T02:24:11.108Z,96944.66
2019-01-15T02:29:28.354Z,96961.70
2019-01-15T02:34:45.868Z,96942.86
2019-01-15T02:40:03.626Z,96947.80
2019-01-15T02:45:21.218Z,96964.91
2019-01-15T02:50:39.951Z,96960.25
2019-01-15T02:55:57.725Z,96962.33
2019-01-15T03:01:15.475Z,96958.16
2019-01-15T03:06:33.093Z,96965.22
2019-01-15T03:11:50.616Z,96947.23
2019-01-15T03:17:08.433Z,96959.45
2019-01-15T03:22:25.741Z,96967.30
2019-01-15T03:27:43.049Z,96961.20
2019-01-15T03:33:01.114Z,96955.74
2019-01-15T03:38:18.774Z,96951.81
2019-01-15T03:43:38.981Z,96937.79
2019-01-15T03:48:56.697Z,96949.35
2019-01-15T03:54:14.305Z,96934.56
2019-01-15T03:59:31.911Z,96950.08
2019-01-15T04:04:49.430Z,96934.10
2019-01-15T04:10:07.713Z,96949.14
2019-01-15T04:15:25.240Z,96961.30
2019-01-15T04:20:42.481Z,96964.50
2019-01-15T04:26:00.012Z,96976.74
2019-01-15T04:31:17.549Z,96955.31
2019-01-15T04:36:34.868Z,96984.20
2019-01-15T04:41:52.658Z,96990.75
2019-01-15T04:47:10.316Z,96993.05
2019-01-15T04:52:27.564Z,97000.60
2019-01-15T04:57:44.878Z,97017.41
2019-01-15T05:03:03.160Z,97024.67
2019-01-15T05:08:20.697Z,97021.92
2019-01-15T05:13:38.357Z,97004.89
2019-01-15T05:18:55.597Z,97023.45
2019-01-15T05:24:12.879Z,97024.45
2019-01-15T05:29:30.060Z,97045.20
2019-01-15T05:34:47.370Z,97042.97
2019-01-15T05:40:05.595Z,97056.77
2019-01-15T05:45:32.219Z,97064.05
2019-01-15T05:51:01.899Z,97079.53
2019-01-15T05:56:20.011Z,97060.98
2019-01-15T06:01:37.761Z,97077.66
2019-01-15T06:06:55.257Z,97067.41
2019-01-15T06:12:21.389Z,97084.10
2019-01-15T06:17:40.569Z,97075.56
2019-01-15T06:22:57.943Z,97093.56
2019-01-15T06:28:15.361Z,97108.42
2019-01-15T06:33:33.215Z,97097.06
2019-01-15T06:38:51.064Z,97112.43
2019-01-15T06:44:08.571Z,97110.20
2019-01-15T06:49:25.698Z,97108.12
2019-01-15T06:54:43.012Z,97137.97
2019-01-15T07:00:00.659Z,97147.46
2019-01-15T07:05:18.140Z,97168.33
2019-01-15T07:10:36.802Z,97163.45
2019-01-15T07:15:54.397Z,97173.00
2019-01-15T07:21:12.260Z,97179.72
2019-01-15T07:26:30.622Z,97180.08
2019-01-15T07:31:48.372Z,97221.39
2019-01-15T07:37:05.629Z,97231.50
2019-01-15T07:42:22.839Z,97233.58
2019-01-15T07:47:39.865Z,97246.84
2019-01-15T07:52:57.077Z,97236.78
2019-01-15T07:58:14.550Z,97244.77
2019-01-15T08:03:31.934Z,97266.66
2019-01-15T08:08:49.503Z,97262.73
2019-01-15T08:14:11.867Z,97287.84
2019-01-15T08:19:25.189Z,97304.64
2019-01-15T08:24:42.288Z,97301.46
2019-01-15T08:30:00.206Z,97311.80
2019-01-15T08:35:17.551Z,97303.76
2019-01-15T08:40:35.062Z,97303.22
2019-01-15T08:45:55.384Z,97307.16
2019-01-15T08:51:10.443Z,97287.21
2019-01-15T08:56:27.802Z,97287.18
2019-01-15T09:01:45.237Z,97298.33
2019-01-15T09:07:03.109Z,97312.88
2019-01-15T09:12:21.047Z,97293.97
2019-01-15T09:17:38.505Z,97310.81
2019-01-15T09:22:55.627Z,97321.05
2019-01-15T09:28:12.942Z,97327.39
2019-01-15T09:33:30.375Z,97334.91
2019-01-15T09:38:47.819Z,97331.48
2019-01-15T09:44:05.230Z,97335.52
2019-01-15T09:49:22.730Z,97334.53
2019-01-15T09:54:40.437Z,97320.80
2019-01-15T09:59:57.890Z,97310.16
2019-01-15T10:05:15.570Z,97321.47
2019-01-15T10:10:33.167Z,97321.89
2019-01-15T10:15:50.611Z,97329.95
2019-01-15T10:21:07.948Z,97331.73
2019-01-15T10:26:25.724Z,97338.71
2019-01-15T10:32:09.982Z,97323.98
2019-01-15T10:37:28.035Z,97323.16
2019-01-15T10:42:45.500Z,97319.28
2019-01-15T10:48:02.716Z,97298.62
2019-01-15T10:53:20.029Z,97303.81
2019-01-15T10:58:37.306Z,97290.67
2019-01-15T11:03:59.787Z,97271.00
2019-01-15T11:09:16.197Z,97270.38
2019-01-15T11:14:33.938Z,97229.59
2019-01-15T11:19:51.239Z,97234.37
2019-01-15T11:25:11.357Z,97244.87
2019-01-15T11:30:28.346Z,97214.42
2019-01-15T11:35:46.628Z,97217.78
2019-01-15T11:41:04.301Z,97228.39
2019-01-15T11:46:21.713Z,97197.18
2019-01-15T11:51:39.377Z,97207.63
2019-01-15T11:56:57.043Z,97222.24
2019-01-15T12:02:36.219Z,97212.35
2019-01-15T12:08:08.447Z,97217.07
2019-01-15T12:13:47.998Z,97199.80
2019-01-15T12:19:23.546Z,97210.49
2019-01-15T12:24:58.582Z,97195.12
2019-01-15T12:30:32.856Z,97207.59
2019-01-15T12:36:07.951Z,97181.61
2019-01-15T12:41:44.753Z,97196.33
2019-01-15T12:47:27.152Z,97194.00
2019-01-15T12:53:07.229Z,97193.68
2019-01-15T12:58:45.973Z,97204.14
2019-01-15T13:04:25.630Z,97189.45
2019-01-15T13:10:02.139Z,97179.58
2019-01-15T13:15:44.768Z,97180.53
2019-01-15T13:21:23.903Z,97178.31
2019-01-15T13:27:03.242Z,97181.58
2019-01-15T13:32:37.015Z,97166.77
2019-01-15T13:38:08.021Z,97178.89
2019-01-15T13:43:53.896Z,97159.50
2019-01-15T13:49:30.209Z,97152.09
2019-01-15T13:55:09.447Z,97172.92
2019-01-15T14:00:49.299Z,97159.86
2019-01-15T14:06:25.881Z,97164.90
2019-01-15T14:12:01.790Z,97165.39
2019-01-15T14:17:37.614Z,97168.09
2019-01-15T14:23:18.159Z,97165.52
2019-01-15T14:28:57.641Z,97171.17
2019-01-15T14:34:34.348Z,97188.13
2019-01-15T14:40:10.951Z,97177.64
2019-01-15T14:45:46.324Z,97170.70
2019-01-15T14:51:20.214Z,97170.58
2019-01-15T14:56:59.428Z,97157.48
2019-01-15T15:02:34.972Z,97149.45
2019-01-15T15:08:23.671Z,97160.56
2019-01-15T15:13:59.785Z,97184.44
2019-01-15T15:19:28.882Z,97176.08
2019-01-15T15:25:12.059Z,97181.39
2019-01-15T15:30:57.835Z,97198.58
2019-01-15T15:36:28.040Z,97182.11
2019-01-15T15:42:01.289Z,97180.09
2019-01-15T15:47:41.922Z,97175.13
2019-01-15T15:53:19.094Z,97191.77
2019-01-15T15:58:54.797Z,97179.27
2019-01-15T16:04:22.534Z,97169.36
2019-01-15T16:10:11.514Z,97175.16
2019-01-15T16:15:45.623Z,97147.12
2019-01-15T16:21:31.780Z,97151.47
2019-01-15T16:27:06.903Z,97138.27
2019-01-15T16:32:46.312Z,97157.48
2019-01-15T16:38:21.561Z,97145.11
2019-01-15T16:44:16.713Z,97161.83
2019-01-15T16:49:51.836Z,97154.89
2019-01-15T16:55:27.431Z,97164.42
2019-01-15T17:01:19.662Z,97179.52
2019-01-15T17:06:49.754Z,97164.30
2019-01-15T17:12:24.798Z,97139.34
2019-01-15T17:18:01.187Z,97155.82
2019-01-15T17:23:40.771Z,97149.80
2019-01-15T17:29:22.449Z,97164.33
2019-01-15T17:34:58.702Z,97172.91
2019-01-15T17:40:38.139Z,97179.16
2019-01-15T17:46:26.665Z,97183.52
2019-01-15T17:52:21.633Z,97178.67
2019-01-15T17:57:51.559Z,97178.34
2019-01-15T18:03:31.426Z,97170.08
2019-01-15T18:09:08.050Z,97193.52
2019-01-15T18:14:50.402Z,97231.67
2019-01-15T18:20:26.040Z,97210.57
2019-01-15T18:26:02.789Z,97214.47
2019-01-15T18:31:39.373Z,97198.08
2019-01-15T18:37:31.033Z,97201.95
2019-01-15T18:43:13.360Z,97206.66
2019-01-15T18:48:54.679Z,97208.77
2019-01-15T18:54:32.856Z,97196.36
2019-01-15T19:00:08.702Z,97200.55
2019-01-15T19:05:38.133Z,97194.78
2019-01-15T19:11:13.457Z,97193.33
2019-01-15T19:17:03.137Z,97197.85
2019-01-15T19:22:32.149Z,97197.22
2019-01-15T19:28:21.225Z,97197.97
2019-01-15T19:33:56.442Z,97199.14
2019-01-15T19:39:36.031Z,97201.16
2019-01-15T19:45:11.451Z,97192.91
2019-01-15T19:50:48.978Z,97192.02
2019-01-15T19:56:40.914Z,97182.98
2019-01-15T20:02:27.048Z,97165.37
2019-01-15T20:08:03.696Z,97164.30
2019-01-15T20:13:43.189Z,97164.08
2019-01-15T20:19:21.510Z,97174.56
2019-01-15T20:25:01.302Z,97132.19
2019-01-15T20:30:56.545Z,97166.80
2019-01-15T20:36:25.883Z,97166.80
2019-01-15T20:41:54.698Z,97152.20
2019-01-15T20:47:28.059Z,97156.66
2019-01-15T20:53:09.060Z,97161.25
2019-01-15T20:58:48.119Z,97161.71
2019-01-15T21:04:40.350Z,97172.55
2019-01-15T21:10:31.866Z,97176.65
2019-01-15T21:16:09.585Z,97152.02
2019-01-15T21:21:41.071Z,97154.03
2019-01-15T21:27:17.802Z,97149.89
2019-01-15T21:33:03.398Z,97173.10
2019-01-15T21:38:47.045Z,97144.42
2019-01-15T21:44:38.521Z,97157.39
2019-01-15T21:50:23.945Z,97122.84
2019-01-15T21:55:48.809Z,97117.31
2019-01-15T22:01:24.006Z,97107.14
2019-01-15T22:07:02.498Z,97116.22
2019-01-15T22:12:48.080Z,97116.22
2019-01-15T22:18:42.951Z,97127.44
2019-01-15T22:24:18.559Z,97099.70
2019-01-15T22:30:04.062Z,97106.50
2019-01-15T22:35:46.622Z,97084.13
2019-01-15T22:41:18.819Z,97086.46
2019-01-15T22:47:10.648Z,97097.28
2019-01-15T22:52:47.312Z,97113.89
2019-01-15T22:58:24.763Z,97112.45
2019-01-15T23:04:08.008Z,97102.08
2019-01-15T23:09:47.696Z,97113.03
2019-01-15T23:15:31.248Z,97134.38
2019-01-15T23:21:10.640Z,97125.23
2019-01-15T23:26:56.419Z,97106.98
2019-01-15T23:32:36.083Z,97118.33
2019-01-15T23:38:27.724Z,97105.69
2019-01-15T23:44:10.080Z,97107.18
2019-01-15T23:49:55.602Z,97103.55
2019-01-15T23:55:30.764Z,97111.07
